Time;durP1;ratioP1;P1;durP2;ratioP2;P2;SDS_P1;SDS_P2;PMS_P1;PMS_P2;Temp;Humidity;BMP_temperature;BMP_pressure;BME280_temperature;BME280_humidity;BME280_pressure;Samples;Min_cycle;Max_cycle;Signal;HPM_P1;HPM_P2
2021/12/15 00:01:23;;;;;;;35.70;18.20;;;;;;;12.28;76.63;101879.84;5016178;28;20189;-71
2021/12/15 00:03:48;;;;;;;30.17;17.63;;;;;;;12.04;76.94;101867.50;5016140;28;20182;-71
2021/12/15 00:06:18;;;;;;;31.53;18.27;;;;;;;12.14;77.09;101879.53;5016427;28;20186;-71
2021/12/15 00:08:46;;;;;;;30.07;18.27;;;;;;;12.52;76.73;101881.41;5016692;28;20196;-71
2021/12/15 00:11:11;;;;;;;31.70;18.37;;;;;;;12.35;76.91;101884.00;5015954;28;20243;-71
2021/12/15 00:13:38;;;;;;;32.13;18.90;;;;;;;12.14;76.72;101868.84;5016076;28;20178;-72
2021/12/15 00:16:06;;;;;;;31.43;18.53;;;;;;;12.35;77.37;101893.81;5016541;28;20220;-71
2021/12/15 00:18:31;;;;;;;33.57;18.80;;;;;;;12.13;77.81;101876.00;5032444;28;20205;-70
2021/12/15 00:20:56;;;;;;;34.90;19.30;;;;;;;12.27;77.19;101879.91;5016124;28;20197;-71
2021/12/15 00:23:22;;;;;;;33.73;19.60;;;;;;;11.95;78.22;101863.41;5032279;28;20181;-70
2021/12/15 00:25:48;;;;;;;35.80;19.20;;;;;;;12.26;77.85;101864.75;5016025;28;20653;-71
2021/12/15 00:28:14;;;;;;;36.30;20.03;;;;;;;12.17;78.01;101872.25;5016966;28;20273;-71
2021/12/15 00:30:39;;;;;;;37.83;21.13;;;;;;;12.08;78.58;101866.44;5016053;28;20654;-72
2021/12/15 00:33:06;;;;;;;34.27;19.03;;;;;;;12.22;77.77;101856.00;5015479;28;20192;-71
2021/12/15 00:35:32;;;;;;;38.83;19.83;;;;;;;12.13;78.55;101867.09;5032066;28;20176;-71
2021/12/15 00:37:57;;;;;;;37.57;20.87;;;;;;;12.14;78.79;101868.84;4999048;28;20196;-70
2021/12/15 00:40:24;;;;;;;45.00;21.37;;;;;;;11.94;79.43;101872.38;5033555;28;20179;-71
2021/12/15 00:42:50;;;;;;;44.17;21.43;;;;;;;11.58;79.63;101851.53;5016127;28;20190;-71
2021/12/15 00:45:16;;;;;;;43.50;21.87;;;;;;;11.90;80.45;101873.44;5032333;28;20187;-71
2021/12/15 00:47:43;;;;;;;46.17;22.53;;;;;;;11.78;80.68;101874.81;5015948;28;20673;-71
2021/12/15 00:50:10;;;;;;;42.90;22.20;;;;;;;12.16;79.38;101873.19;5016029;28;20173;-71
2021/12/15 00:52:37;;;;;;;49.30;22.03;;;;;;;12.15;80.11;101882.16;5015617;28;20215;-71
2021/12/15 00:55:06;;;;;;;54.37;23.47;;;;;;;11.65;80.89;101878.91;4999791;28;20228;-72
2021/12/15 00:57:31;;;;;;;50.37;23.47;;;;;;;12.32;79.36;101870.72;5015596;28;20238;-71
2021/12/15 00:59:56;;;;;;;49.77;23.70;;;;;;;12.21;79.99;101881.88;5031989;28;20197;-71
2021/12/15 01:02:22;;;;;;;52.43;23.63;;;;;;;12.42;78.82;101887.25;5031772;28;20197;-71
2021/12/15 01:04:47;;;;;;;53.93;24.73;;;;;;;12.37;79.09;101886.59;5033071;28;20222;-72
2021/12/15 01:07:13;;;;;;;59.23;24.87;;;;;;;12.04;79.68;101889.78;5015401;28;20703;-72
2021/12/15 01:09:46;;;;;;;64.70;26.63;;;;;;;12.12;80.64;101902.81;5015393;28;20206;-71
2021/12/15 01:14:32;;;;;;;60.20;25.30;;;;;;;12.12;80.17;101902.81;4999324;28;20514;-71
2021/12/15 01:20:30;;;;;;;62.43;25.10;;;;;;;12.17;80.72;101900.81;5018152;28;20192;-71
2021/12/15 01:22:58;;;;;;;61.87;24.70;;;;;;;12.34;80.11;101916.19;5031525;28;20651;-71
2021/12/15 01:25:36;;;;;;;62.73;25.00;;;;;;;12.26;80.10;101912.94;5015420;28;20271;-70
2021/12/15 01:28:02;;;;;;;60.27;26.17;;;;;;;11.98;81.53;101906.09;5015186;28;20263;-71
2021/12/15 01:30:30;;;;;;;67.77;25.77;;;;;;;12.38;81.08;101923.13;5033020;28;20184;-71
2021/12/15 01:32:56;;;;;;;66.07;24.87;;;;;;;12.08;81.29;101910.13;5015191;28;20172;-71
2021/12/15 01:35:22;;;;;;;61.57;25.00;;;;;;;12.03;81.25;101897.88;5015471;28;20201;-72
2021/12/15 01:37:49;;;;;;;63.63;25.40;;;;;;;12.16;81.74;101921.38;5015217;28;20627;-71
2021/12/15 01:40:25;;;;;;;63.43;24.80;;;;;;;11.96;82.28;101916.00;5015175;28;20170;-71
2021/12/15 01:42:50;;;;;;;64.80;24.77;;;;;;;12.07;82.23;101908.38;4999948;28;20209;-71
2021/12/15 01:48:03;;;;;;;64.27;25.87;;;;;;;12.38;80.66;101915.09;5021844;28;20211;-71
2021/12/15 01:50:29;;;;;;;65.33;24.67;;;;;;;12.19;81.17;101907.84;5019003;28;20178;-70
2021/12/15 01:52:54;;;;;;;60.87;23.67;;;;;;;12.20;nan;101898.88;5036613;28;20664;-71
2021/12/15 01:55:20;;;;;;;67.20;24.30;;;;;;;12.17;81.42;101896.34;5018716;28;20177;-71
2021/12/15 01:57:46;;;;;;;57.07;23.57;;;;;;;11.50;82.53;101883.03;5018749;28;20812;-71
2021/12/15 02:00:27;;;;;;;54.77;23.37;;;;;;;12.29;81.77;101900.31;5019006;28;20182;-71
2021/12/15 02:02:54;;;;;;;57.70;22.40;;;;;;;12.18;81.30;101892.72;5004119;28;20254;-71
2021/12/15 02:05:20;;;;;;;57.23;23.10;;;;;;;12.41;80.29;101888.19;5036976;28;20176;-71
2021/12/15 02:07:47;;;;;;;57.30;22.23;;;;;;;12.52;80.09;101896.63;5020037;28;20631;-71
2021/12/15 02:10:13;;;;;;;55.83;22.17;;;;;;;12.16;80.45;101883.91;5004396;28;20227;-72
2021/12/15 02:12:41;;;;;;;52.57;22.43;;;;;;;12.33;80.18;101885.00;5020800;28;20248;-71
2021/12/15 02:15:10;;;;;;;46.87;20.40;;;;;;;12.52;79.57;101889.44;5018746;28;20226;-72
2021/12/15 02:17:36;;;;;;;49.23;21.63;;;;;;;12.32;80.18;101891.28;5018261;28;20678;-71
2021/12/15 02:20:03;;;;;;;47.37;21.93;;;;;;;12.53;79.65;101890.31;5018294;28;20181;-71
2021/12/15 02:22:30;;;;;;;48.97;22.17;;;;;;;12.49;79.42;101880.69;5001942;28;20676;-72
2021/12/15 02:24:55;;;;;;;54.97;23.37;;;;;;;12.54;79.20;101889.38;5018361;28;20271;-71
2021/12/15 02:27:21;;;;;;;49.63;22.40;;;;;;;12.86;77.78;101895.09;5034733;28;20232;-72
2021/12/15 02:29:51;;;;;;;45.47;21.23;;;;;;;12.63;78.33;101882.75;5018101;28;20168;-72
2021/12/15 02:32:33;;;;;;;45.27;21.47;;;;;;;12.82;78.23;101889.91;5019913;28;20172;-71
2021/12/15 02:37:43;;;;;;;43.60;21.20;;;;;;;12.91;77.64;101887.72;5028486;28;20203;-71
2021/12/15 02:40:11;;;;;;;44.60;20.87;;;;;;;12.93;77.41;101886.72;5021050;28;20632;-71
2021/12/15 02:42:45;;;;;;;42.63;20.67;;;;;;;13.00;77.39;101889.97;5018053;28;20201;-71
2021/12/15 02:45:13;;;;;;;33.97;19.83;;;;;;;12.84;77.33;101889.81;5017832;28;20167;-71
2021/12/15 02:47:38;;;;;;;35.97;19.30;;;;;;;12.72;77.20;101879.66;5001215;28;20200;-70
2021/12/15 02:50:07;;;;;;;37.83;19.47;;;;;;;12.67;78.04;101884.38;5017812;28;20176;-71
2021/12/15 02:52:33;;;;;;;33.13;18.00;;;;;;;12.70;77.60;101895.81;5017557;28;20177;-71
2021/12/15 02:54:58;;;;;;;34.93;17.93;;;;;;;12.37;78.32;101881.25;5017529;28;20556;-71
2021/12/15 02:57:23;;;;;;;37.03;18.20;;;;;;;12.61;77.84;101885.50;5035127;28;20690;-70
2021/12/15 03:00:01;;;;;;;32.57;18.20;;;;;;;12.80;77.63;101897.13;5035095;28;20172;-70
2021/12/15 03:05:22;;;;;;;33.53;17.90;;;;;;;12.65;76.98;101887.13;5020402;28;20187;-70
2021/12/15 03:08:03;;;;;;;32.43;18.00;;;;;;;12.66;77.25;101888.84;5002083;28;20202;-70
2021/12/15 03:15:56;;;;;;;31.73;17.67;;;;;;;12.34;78.30;101887.59;5035407;28;20159;-71
2021/12/15 03:18:24;;;;;;;30.50;16.93;;;;;;;12.59;77.76;101905.25;5016999;28;20192;-70
2021/12/15 03:20:53;;;;;;;32.60;17.20;;;;;;;12.64;76.95;101884.50;5017029;28;20526;-71
2021/12/15 03:23:26;;;;;;;30.60;17.07;;;;;;;12.57;77.61;101883.03;5034122;28;20202;-70
2021/12/15 03:25:52;;;;;;;32.63;16.83;;;;;;;12.62;77.30;101878.31;5017210;28;20627;-71
2021/12/15 03:34:11;;;;;;;27.30;15.83;;;;;;;12.55;77.12;101872.38;5020060;28;20245;-71
2021/12/15 03:39:28;;;;;;;28.13;16.73;;;;;;;13.07;75.99;101884.28;5018651;28;20206;-71
2021/12/15 03:42:02;;;;;;;28.97;16.60;;;;;;;12.52;76.72;101859.13;5017156;28;20197;-71
2021/12/15 03:44:30;;;;;;;29.30;16.60;;;;;;;12.61;76.86;101863.19;5033475;28;20209;-71
2021/12/15 03:46:56;;;;;;;29.23;16.33;;;;;;;12.82;76.14;101868.47;5034764;28;20268;-71
2021/12/15 03:49:21;;;;;;;28.67;15.80;;;;;;;12.86;75.89;101853.09;5018150;28;20200;-74
2021/12/15 03:51:47;;;;;;;28.90;15.47;;;;;;;12.59;76.63;101852.56;5000604;28;20176;-71
2021/12/15 03:54:12;;;;;;;26.47;15.90;;;;;;;12.60;76.68;101856.09;5017297;28;20175;-71
2021/12/15 03:56:41;;;;;;;29.47;16.30;;;;;;;12.60;76.62;101835.53;5021138;28;20170;-71
2021/12/15 03:59:07;;;;;;;27.07;15.50;;;;;;;12.98;75.38;101852.53;5042603;28;20193;-71
2021/12/15 04:01:33;;;;;;;24.37;15.23;;;;;;;12.72;76.46;101850.22;5027376;28;20221;-72
2021/12/15 04:03:59;;;;;;;27.57;15.30;;;;;;;12.16;77.97;101851.78;5026656;28;20177;-71
2021/12/15 04:06:27;;;;;;;25.37;15.37;;;;;;;12.73;76.79;101857.31;5026472;28;20229;-71
2021/12/15 04:08:53;;;;;;;28.00;15.47;;;;;;;12.92;75.74;101849.28;5020253;28;20194;-72
2021/12/15 04:11:21;;;;;;;23.80;15.07;;;;;;;12.84;75.17;101845.16;5016631;28;20174;-71
2021/12/15 04:13:47;;;;;;;26.90;15.90;;;;;;;12.76;75.54;101852.69;5016294;28;20179;-71
2021/12/15 04:16:41;;;;;;;25.70;15.17;;;;;;;12.90;75.07;101853.84;5016570;28;20177;-71
2021/12/15 04:19:06;;;;;;;23.00;13.87;;;;;;;12.92;75.18;101847.47;5019061;28;20206;-70
2021/12/15 04:21:32;;;;;;;25.00;14.07;;;;;;;13.09;74.26;101852.06;5015822;28;20280;-69
2021/12/15 04:23:58;;;;;;;25.80;15.13;;;;;;;12.72;74.94;101831.47;5032432;28;20197;-70
2021/12/15 04:26:24;;;;;;;21.43;13.43;;;;;;;12.63;75.80;101838.06;5015938;28;20173;-70
2021/12/15 04:28:50;;;;;;;22.03;13.23;;;;;;;12.50;76.09;101839.59;4999204;28;20257;-72
2021/12/15 04:31:19;;;;;;;25.37;14.13;;;;;;;12.51;75.58;101830.63;5015906;28;20269;-70
2021/12/15 04:33:55;;;;;;;23.87;13.77;;;;;;;12.74;75.40;101833.13;4999384;28;20172;-72
2021/12/15 04:36:23;;;;;;;22.53;13.50;;;;;;;12.89;74.35;101852.97;5016262;28;20581;-71
2021/12/15 04:38:48;;;;;;;25.53;14.60;;;;;;;12.35;76.21;101842.97;5015724;28;20681;-71
2021/12/15 04:41:16;;;;;;;26.73;14.60;;;;;;;12.97;74.75;101861.50;5020950;28;20294;-71
2021/12/15 04:43:42;;;;;;;24.10;13.87;;;;;;;13.02;74.58;101859.50;5018787;28;20600;-71
2021/12/15 04:46:09;;;;;;;26.50;14.93;;;;;;;12.81;75.27;101853.31;5015620;28;20182;-71
2021/12/15 04:48:36;;;;;;;24.77;13.53;;;;;;;12.82;74.92;101856.88;5016488;28;20620;-71
2021/12/15 04:51:02;;;;;;;23.97;14.00;;;;;;;12.72;75.44;101856.44;5033327;28;20172;-71
2021/12/15 04:53:27;;;;;;;23.33;13.50;;;;;;;12.80;75.17;101856.06;5018140;28;20178;-71
2021/12/15 04:55:53;;;;;;;20.57;13.03;;;;;;;12.93;74.07;101864.41;5000611;28;20203;-71
2021/12/15 04:58:18;;;;;;;22.50;14.13;;;;;;;12.30;76.28;101869.06;5016195;28;20591;-71
2021/12/15 05:00:54;;;;;;;22.67;14.47;;;;;;;12.91;74.40;101866.28;5016024;28;20200;-70
2021/12/15 05:03:21;;;;;;;21.53;13.10;;;;;;;12.71;74.59;101849.34;5016035;28;20232;-70
2021/12/15 05:05:46;;;;;;;24.33;14.00;;;;;;;12.84;74.34;101855.88;5017560;28;20234;-71
2021/12/15 05:08:11;;;;;;;21.80;13.73;;;;;;;12.56;75.35;101850.00;5002457;28;20233;-71
2021/12/15 05:10:37;;;;;;;21.53;13.97;;;;;;;12.42;75.62;101853.31;5016877;28;20172;-71
2021/12/15 05:13:03;;;;;;;22.07;13.03;;;;;;;12.61;75.36;101858.72;5015761;28;20201;-71
2021/12/15 05:15:29;;;;;;;23.80;13.80;;;;;;;12.09;77.06;101865.50;5032323;28;20174;-62
2021/12/15 05:17:55;;;;;;;23.77;14.27;;;;;;;12.33;75.37;101836.81;5033526;28;20204;-60
2021/12/15 05:20:22;;;;;;;22.70;14.57;;;;;;;12.70;75.14;101866.34;5036529;28;20662;-61
2021/12/15 05:22:47;;;;;;;22.07;13.03;;;;;;;12.41;76.37;101840.88;5020690;28;20193;-61
2021/12/15 05:25:13;;;;;;;26.00;13.47;;;;;;;12.69;74.90;101850.34;5020118;28;20235;-61
2021/12/15 05:27:39;;;;;;;22.50;14.00;;;;;;;12.60;75.57;101862.31;5036830;28;20202;-61
2021/12/15 05:30:10;;;;;;;22.97;13.20;;;;;;;12.59;75.94;101855.22;5019260;28;20277;-61
2021/12/15 05:32:35;;;;;;;26.13;15.07;;;;;;;12.73;75.31;101850.13;5019189;28;20174;-60
2021/12/15 05:35:01;;;;;;;27.13;14.43;;;;;;;12.55;75.34;101853.63;5038585;28;20174;-71
2021/12/15 05:37:27;;;;;;;29.37;16.10;;;;;;;12.78;75.30;101866.00;5020822;28;20194;-71
2021/12/15 05:39:53;;;;;;;24.30;14.07;;;;;;;12.57;75.79;101861.59;5038473;28;20232;-71
2021/12/15 05:42:21;;;;;;;25.17;14.23;;;;;;;12.49;76.52;101872.66;5003962;28;20195;-72
2021/12/15 05:44:48;;;;;;;24.20;15.00;;;;;;;12.91;75.42;101877.00;5004177;28;20228;-71
2021/12/15 05:47:13;;;;;;;28.47;14.80;;;;;;;12.87;74.72;101860.22;5020096;28;20264;-72
2021/12/15 05:49:39;;;;;;;28.17;14.77;;;;;;;12.64;75.50;101869.31;5020160;28;20203;-71
2021/12/15 05:52:05;;;;;;;26.60;14.63;;;;;;;12.94;74.70;101869.69;5038057;28;20169;-71
2021/12/15 05:54:30;;;;;;;26.27;14.73;;;;;;;12.74;75.53;101885.81;5020325;28;20187;-71
2021/12/15 05:56:56;;;;;;;25.87;14.87;;;;;;;12.65;75.89;101881.75;5020017;28;20616;-71
2021/12/15 05:59:21;;;;;;;23.70;14.57;;;;;;;12.59;76.59;101884.69;5020936;28;20248;-71
2021/12/15 06:01:47;;;;;;;25.07;15.73;;;;;;;12.92;75.19;101878.75;5037348;28;20199;-71
2021/12/15 06:04:13;;;;;;;27.37;15.57;;;;;;;12.59;75.92;101871.31;5007994;28;20236;-72
2021/12/15 06:06:38;;;;;;;29.63;15.10;;;;;;;12.53;76.40;101883.16;5041514;28;20177;-72
2021/12/15 06:09:06;;;;;;;28.53;16.13;;;;;;;12.68;76.38;101886.97;5005708;28;20195;-72
2021/12/15 06:11:31;;;;;;;28.97;16.07;;;;;;;12.74;76.09;101885.81;5020406;28;20225;-71
2021/12/15 06:13:57;;;;;;;25.73;14.97;;;;;;;12.70;75.77;101884.22;5004115;28;20178;-71
2021/12/15 06:16:22;;;;;;;25.80;15.50;;;;;;;13.10;75.00;101896.66;5003718;28;20173;-72
2021/12/15 06:18:49;;;;;;;29.90;15.97;;;;;;;13.25;73.89;101901.34;5036672;28;20224;-71
2021/12/15 06:21:16;;;;;;;29.80;16.00;;;;;;;13.00;75.13;101904.25;5018931;28;20572;-72
2021/12/15 06:23:43;;;;;;;31.60;16.40;;;;;;;13.22;74.68;101908.66;5002424;28;20215;-71
2021/12/15 06:26:09;;;;;;;28.97;17.67;;;;;;;13.13;74.81;101905.44;5034930;28;20189;-71
2021/12/15 06:28:35;;;;;;;31.67;17.47;;;;;;;13.06;74.90;101904.00;5040750;22;20659;-68
2021/12/15 06:31:01;;;;;;;28.20;15.90;;;;;;;13.07;74.95;101905.72;5015729;28;20671;-68
2021/12/15 06:33:28;;;;;;;30.53;15.83;;;;;;;13.08;75.23;101914.63;5016490;28;20170;-68
2021/12/15 06:35:57;;;;;;;31.37;16.53;;;;;;;13.23;74.61;101916.63;5015070;28;20233;-68
2021/12/15 06:38:26;;;;;;;30.10;16.53;;;;;;;12.79;75.32;101899.88;5016871;28;20215;-68
2021/12/15 06:40:51;;;;;;;27.37;15.83;;;;;;;13.05;74.94;101912.09;5023094;28;20750;-68
2021/12/15 06:43:17;;;;;;;31.33;16.80;;;;;;;12.76;75.53;101906.25;5018499;28;20275;-68
2021/12/15 06:59:22;;;;;;;34.57;17.33;;;;;;;12.55;76.68;101909.88;5014923;28;20204;-68
2021/12/15 07:01:50;;;;;;;31.70;18.17;;;;;;;12.81;76.48;101922.13;5015619;28;20210;-68
2021/12/15 07:04:15;;;;;;;33.17;18.23;;;;;;;12.31;77.77;101919.84;5015496;28;20173;-69
2021/12/15 07:06:40;;;;;;;29.03;17.03;;;;;;;12.84;76.17;101909.44;5015752;28;20182;-69
2021/12/15 07:09:06;;;;;;;33.63;17.43;;;;;;;12.79;76.14;101915.97;5013931;28;20210;-68
2021/12/15 07:11:32;;;;;;;33.33;17.27;;;;;;;13.20;74.95;101922.13;5015674;28;20206;-69
2021/12/15 07:13:57;;;;;;;32.20;18.47;;;;;;;12.97;75.38;101931.19;5014158;28;20283;-69
2021/12/15 07:16:24;;;;;;;35.47;18.93;;;;;;;12.43;77.58;101932.72;5015200;28;20188;-69
2021/12/15 07:19:03;;;;;;;34.30;18.27;;;;;;;12.87;76.02;101932.56;5015084;28;20759;-69
2021/12/15 07:21:34;;;;;;;31.33;17.97;;;;;;;12.84;76.43;101938.91;5015179;28;20513;-68
2021/12/15 07:23:59;;;;;;;30.17;17.43;;;;;;;12.72;77.22;101936.78;5015527;28;20577;-69
2021/12/15 07:26:25;;;;;;;32.57;18.60;;;;;;;12.61;77.72;101938.19;5015200;28;20181;-69
2021/12/15 07:28:50;;;;;;;36.53;19.80;;;;;;;12.94;76.87;101943.84;5015355;28;20213;-67
2021/12/15 07:31:15;;;;;;;35.87;18.67;;;;;;;12.67;77.51;101922.75;5015241;28;20230;-67
2021/12/15 07:33:41;;;;;;;35.73;19.20;;;;;;;12.97;77.00;101939.22;5014007;28;20179;-67
2021/12/15 07:36:07;;;;;;;38.33;19.37;;;;;;;12.82;77.56;101940.78;5014090;28;20231;-67
2021/12/15 07:38:34;;;;;;;38.87;20.90;;;;;;;13.29;76.43;101953.88;5015313;28;20197;-67
2021/12/15 07:41:00;;;;;;;41.80;19.87;;;;;;;13.16;76.40;101955.34;5014777;28;20198;-67
2021/12/15 07:43:25;;;;;;;35.43;20.30;;;;;;;12.57;78.25;101921.38;5014347;28;20181;-67
2021/12/15 07:45:56;;;;;;;44.13;20.60;;;;;;;13.14;77.19;101958.09;5014781;28;20180;-67
2021/12/15 07:48:23;;;;;;;39.87;20.27;;;;;;;12.83;77.87;101958.59;4997279;28;20226;-67
2021/12/15 07:50:50;;;;;;;45.47;21.63;;;;;;;12.85;78.71;101963.91;5013578;28;20187;-67
2021/12/15 07:53:18;;;;;;;39.90;20.20;;;;;;;12.80;77.95;101955.19;5014796;28;20171;-68
2021/12/15 07:55:44;;;;;;;36.40;19.37;;;;;;;13.15;77.64;101957.16;5013634;28;20178;-68
2021/12/15 07:58:10;;;;;;;38.67;20.27;;;;;;;13.22;77.26;101973.00;5014599;28;20577;-68
2021/12/15 08:00:37;;;;;;;34.77;20.00;;;;;;;13.01;77.56;101961.41;5014969;28;20177;-67
2021/12/15 08:03:04;;;;;;;38.93;21.10;;;;;;;13.25;77.35;101978.22;5014465;28;20557;-67
2021/12/15 08:05:29;;;;;;;38.57;20.33;;;;;;;13.01;77.60;101969.47;5015028;28;20270;-66
2021/12/15 08:07:55;;;;;;;34.20;18.70;;;;;;;12.56;79.27;101948.22;5014543;28;20258;-67
2021/12/15 08:10:20;;;;;;;36.73;19.63;;;;;;;13.18;77.94;101982.13;5013327;28;20178;-68
2021/12/15 08:12:47;;;;;;;32.20;17.60;;;;;;;12.44;78.56;101968.38;5014237;28;20644;-67
2021/12/15 08:15:14;;;;;;;37.93;19.83;;;;;;;12.94;79.14;101981.38;5014257;28;20532;-67
2021/12/15 08:17:41;;;;;;;36.10;19.83;;;;;;;13.00;78.29;101979.28;5014112;28;20199;-67
2021/12/15 08:20:08;;;;;;;33.23;17.83;;;;;;;13.08;77.84;101978.97;5012847;28;20180;-67
2021/12/15 08:22:34;;;;;;;32.50;18.43;;;;;;;12.99;78.19;101972.19;5013919;28;20687;-67
2021/12/15 08:24:59;;;;;;;33.70;18.57;;;;;;;12.81;79.21;101971.22;5012870;28;20191;-65
2021/12/15 08:27:24;;;;;;;35.50;18.23;;;;;;;12.68;79.63;101975.38;5014262;28;20702;-67
2021/12/15 08:29:49;;;;;;;34.07;19.87;;;;;;;12.89;78.95;101970.84;5013794;28;20665;-67
2021/12/15 08:32:15;;;;;;;36.40;19.00;;;;;;;12.89;78.62;101978.91;5013757;28;20168;-66
2021/12/15 08:34:40;;;;;;;30.53;18.23;;;;;;;12.78;78.73;101967.78;5014334;28;20183;-67
2021/12/15 08:37:06;;;;;;;31.93;18.27;;;;;;;12.82;79.06;101974.75;5013833;28;20596;-66
2021/12/15 08:39:31;;;;;;;31.50;18.97;;;;;;;13.02;78.35;101987.28;5014635;28;20210;-67
2021/12/15 08:41:57;;;;;;;30.60;18.33;;;;;;;13.23;77.41;101986.31;5014147;28;20290;-68
2021/12/15 08:44:22;;;;;;;31.10;17.67;;;;;;;13.32;77.35;101996.63;5014146;28;20244;-67
2021/12/15 08:46:48;;;;;;;33.77;18.83;;;;;;;13.50;76.86;101999.41;5013635;28;20221;-67
2021/12/15 08:49:17;;;;;;;33.67;19.37;;;;;;;13.16;77.64;102011.66;5012930;28;20194;-67
2021/12/15 08:51:43;;;;;;;32.80;18.77;;;;;;;13.42;77.01;102007.81;5013614;28;20671;-68
2021/12/15 08:54:14;;;;;;;34.57;18.37;;;;;;;13.31;76.12;101986.84;5014538;28;20209;-67
2021/12/15 08:56:39;;;;;;;32.80;18.13;;;;;;;13.14;76.97;101992.06;5014418;28;20218;-67
2021/12/15 08:59:05;;;;;;;35.47;18.97;;;;;;;13.50;76.47;102011.00;5013766;28;20200;-67
2021/12/15 09:01:31;;;;;;;34.50;18.53;;;;;;;13.15;77.13;102000.06;5012706;28;20253;-68
2021/12/15 09:03:56;;;;;;;34.27;19.33;;;;;;;13.45;76.20;102008.53;5014625;28;20178;-68
2021/12/15 09:06:22;;;;;;;35.33;19.03;;;;;;;13.38;77.11;102016.91;5013648;28;20179;-67
2021/12/15 09:08:47;;;;;;;31.37;18.27;;;;;;;13.27;76.98;102003.13;4996347;28;20198;-68
2021/12/15 09:11:15;;;;;;;31.63;18.07;;;;;;;13.44;77.13;102017.53;5012416;28;20204;-69
2021/12/15 09:13:42;;;;;;;32.73;18.70;;;;;;;13.74;75.73;102014.34;5014557;28;20179;-67
2021/12/15 09:16:10;;;;;;;31.53;17.77;;;;;;;13.56;75.96;102001.81;5013311;28;20208;-67
2021/12/15 09:18:38;;;;;;;30.77;18.33;;;;;;;13.48;76.28;102010.22;5013130;28;20195;-68
2021/12/15 09:21:04;;;;;;;32.03;18.63;;;;;;;13.97;75.27;102019.47;5013117;28;20183;-68
2021/12/15 09:23:30;;;;;;;30.90;17.33;;;;;;;13.90;74.66;102007.31;5013592;28;20194;-68
2021/12/15 09:25:57;;;;;;;35.70;19.30;;;;;;;14.05;74.50;102024.47;5012530;28;20172;-68
2021/12/15 09:28:24;;;;;;;30.13;18.57;;;;;;;13.50;76.13;101999.41;5012984;28;20208;-66
2021/12/15 09:30:50;;;;;;;33.80;18.47;;;;;;;13.66;75.27;101995.06;5013235;28;20266;-68
2021/12/15 09:33:18;;;;;;;32.07;18.23;;;;;;;13.73;75.27;101999.19;5011729;28;20293;-68
2021/12/15 09:35:44;;;;;;;31.83;18.00;;;;;;;13.90;74.85;102007.31;5012914;28;20191;-67
2021/12/15 09:38:12;;;;;;;35.93;18.93;;;;;;;13.79;74.99;102001.59;5012984;28;20593;-68
2021/12/15 09:40:37;;;;;;;30.07;17.90;;;;;;;14.05;74.23;102008.38;5012998;28;20260;-67
2021/12/15 09:43:04;;;;;;;33.20;17.53;;;;;;;13.85;74.60;101993.25;5013123;28;20204;-66
2021/12/15 09:45:55;;;;;;;30.23;17.17;;;;;;;13.74;75.40;102000.91;5013355;28;20188;-67
2021/12/15 09:57:15;;;;;;;26.03;16.30;;;;;;;13.82;74.94;101996.06;5013192;28;20207;-67
2021/12/15 10:05:07;;;;;;;29.67;16.10;;;;;;;14.07;74.27;102007.34;5013850;28;20183;-66
2021/12/15 10:11:11;;;;;;;23.67;14.77;;;;;;;14.48;73.20;102008.94;5016967;28;20187;-67
2021/12/15 10:19:28;;;;;;;30.93;16.40;;;;;;;14.56;72.28;102001.41;5016458;28;20258;-66
2021/12/15 10:22:15;;;;;;;28.53;15.23;;;;;;;14.58;73.04;102012.94;5015025;28;20227;-67
2021/12/15 10:25:04;;;;;;;35.10;19.30;;;;;;;14.47;73.03;102005.38;5016503;28;20161;-67
2021/12/15 10:27:39;;;;;;;27.37;16.57;;;;;;;14.10;73.76;101992.91;5015447;28;20180;-67
2021/12/15 10:30:28;;;;;;;28.97;16.70;;;;;;;14.09;74.00;101989.34;4998313;28;20184;-67
2021/12/15 10:33:16;;;;;;;29.57;17.03;;;;;;;14.19;73.89;101997.84;5006740;28;20191;-66
2021/12/15 10:35:50;;;;;;;25.73;15.67;;;;;;;14.24;74.17;101989.56;5015410;28;20518;-68
2021/12/15 10:38:26;;;;;;;27.80;16.30;;;;;;;14.13;74.64;101986.53;5016017;28;20200;-68
2021/12/15 10:41:09;;;;;;;23.77;15.47;;;;;;;13.78;75.72;101986.44;5014938;28;20165;-67
2021/12/15 10:43:42;;;;;;;32.67;16.63;;;;;;;14.05;75.07;101985.06;5016813;28;20171;-66
2021/12/15 10:46:28;;;;;;;25.97;15.07;;;;;;;14.18;74.89;101989.88;5015492;28;20168;-67
2021/12/15 10:49:15;;;;;;;24.43;14.83;;;;;;;14.39;74.02;101983.41;5016291;28;20628;-67
2021/12/15 10:51:49;;;;;;;27.27;16.03;;;;;;;14.19;74.52;101995.16;5016914;28;20163;-67
2021/12/15 10:54:24;;;;;;;27.13;15.00;;;;;;;13.94;75.27;101990.09;5015831;28;20168;-67
2021/12/15 10:57:01;;;;;;;25.03;15.40;;;;;;;14.29;75.03;102001.81;5014774;28;20174;-67
2021/12/15 10:59:29;;;;;;;30.30;16.27;;;;;;;14.15;75.04;101976.59;5015913;28;20188;-67
2021/12/15 11:02:00;;;;;;;27.10;15.27;;;;;;;14.49;74.26;101982.00;5014712;28;20277;-66
2021/12/15 11:04:37;;;;;;;26.77;15.93;;;;;;;14.41;74.39;101984.19;5015885;28;20175;-68
2021/12/15 11:07:19;;;;;;;27.07;15.07;;;;;;;14.11;75.13;101973.16;5014660;28;20549;-67
2021/12/15 11:09:50;;;;;;;26.60;15.67;;;;;;;14.05;75.11;101979.72;5015719;28;20254;-67
2021/12/15 11:12:37;;;;;;;23.60;14.37;;;;;;;14.27;74.88;101982.22;5015633;28;20165;-67
2021/12/15 11:15:27;;;;;;;30.13;16.40;;;;;;;14.10;75.44;101968.75;5015399;28;20160;-67
2021/12/15 11:18:13;;;;;;;30.60;16.00;;;;;;;14.27;75.21;101973.28;5014346;28;20160;-67
2021/12/15 11:20:43;;;;;;;28.07;16.30;;;;;;;13.98;75.27;101964.84;5015480;28;20169;-67
2021/12/15 11:23:15;;;;;;;28.30;15.50;;;;;;;14.33;74.69;101968.47;5015030;28;20280;-68
2021/12/15 11:25:56;;;;;;;26.00;15.00;;;;;;;14.40;74.43;101977.94;5013981;28;20226;-67
2021/12/15 11:28:24;;;;;;;27.90;15.27;;;;;;;14.50;73.76;101970.34;5013800;28;20207;-67
2021/12/15 11:30:57;;;;;;;25.87;16.13;;;;;;;14.36;74.66;101975.50;5013910;28;20260;-68
2021/12/15 11:33:25;;;;;;;26.07;14.70;;;;;;;14.33;74.91;101972.97;5014879;28;20169;-67
2021/12/15 11:36:10;;;;;;;24.47;14.27;;;;;;;14.62;73.83;101993.88;5015194;28;20176;-68
2021/12/15 11:38:39;;;;;;;32.83;16.27;;;;;;;14.46;74.10;101960.69;5013690;28;20195;-68
2021/12/15 11:41:24;;;;;;;27.13;15.53;;;;;;;14.60;73.39;101952.78;5014796;28;20251;-67
2021/12/15 11:43:52;;;;;;;27.33;14.97;;;;;;;14.24;74.95;101952.81;5014694;28;20184;-67
2021/12/15 11:46:36;;;;;;;25.53;14.03;;;;;;;16.32;69.51;101965.66;5013114;28;20227;-67
2021/12/15 11:49:14;;;;;;;24.63;13.70;;;;;;;16.96;66.44;101969.91;5013311;28;20189;-66
2021/12/15 11:51:57;;;;;;;23.40;14.53;;;;;;;17.12;65.34;101950.00;5014607;28;20160;-67
2021/12/15 11:54:31;;;;;;;24.20;13.80;;;;;;;15.98;68.67;101954.16;5013398;28;20260;-67
2021/12/15 11:56:59;;;;;;;25.37;14.97;;;;;;;15.94;68.85;101955.31;5014944;28;20192;-68
2021/12/15 11:59:27;;;;;;;22.30;14.20;;;;;;;16.92;67.14;101977.31;5014500;28;20263;-68
2021/12/15 12:02:09;;;;;;;22.40;13.20;;;;;;;17.00;65.32;101955.28;5003295;28;20201;-68
2021/12/15 12:04:43;;;;;;;22.23;13.83;;;;;;;17.69;63.29;101962.59;5016151;28;20573;-67
2021/12/15 12:07:47;;;;;;;21.17;12.73;;;;;;;17.35;64.01;101961.16;5015233;28;20177;-67
2021/12/15 12:10:19;;;;;;;22.37;13.27;;;;;;;16.53;66.51;101967.97;4991904;28;20188;-67
2021/12/15 12:12:52;;;;;;;22.23;14.07;;;;;;;15.96;67.81;101953.41;5014446;28;20208;-67
2021/12/15 12:15:25;;;;;;;25.47;14.70;;;;;;;15.60;69.61;101946.47;5014926;28;20184;-69
2021/12/15 12:17:56;;;;;;;26.00;14.97;;;;;;;15.11;70.99;101937.53;5012905;28;20177;-68
2021/12/15 12:20:30;;;;;;;24.60;15.03;;;;;;;15.04;72.35;101951.38;5014126;28;20168;-68
2021/12/15 12:22:57;;;;;;;28.53;15.67;;;;;;;14.48;73.75;101950.72;5013248;28;20201;-66